Time;durP1;ratioP1;P1;durP2;ratioP2;P2;SDS_P1;SDS_P2;PMS_P1;PMS_P2;Temp;Humidity;BMP_temperature;BMP_pressure;BME280_temperature;BME280_humidity;BME280_pressure;Samples;Min_cycle;Max_cycle;Signal;HPM_P1;HPM_P2
2022/06/21 00:01:52;;;;;;;;;;;24.70;45.10;;;;;;5057463;28;20007;-76
2022/06/21 00:04:17;;;;;;;;;;;24.70;45.10;;;;;;5039450;28;19983;-75
2022/06/21 00:06:43;;;;;;;;;;;24.70;45.10;;;;;;5023106;28;19909;-76
2022/06/21 00:09:10;;;;;;;;;;;24.70;45.10;;;;;;5039451;28;20356;-77
2022/06/21 00:11:36;;;;;;;;;;;24.70;45.10;;;;;;5056737;28;19931;-76
2022/06/21 00:14:01;;;;;;;;;;;24.70;45.20;;;;;;5056868;28;19913;-77
2022/06/21 00:16:27;;;;;;;;;;;24.70;45.20;;;;;;5056830;28;19909;-76
2022/06/21 00:18:53;;;;;;;;;;;24.70;45.20;;;;;;5039130;28;19908;-76
2022/06/21 00:21:19;;;;;;;;;;;24.70;45.20;;;;;;5022241;28;20006;-76
2022/06/21 00:23:45;;;;;;;;;;;24.70;45.20;;;;;;5056601;28;19917;-76
2022/06/21 00:26:11;;;;;;;;;;;24.70;45.20;;;;;;5038683;28;20270;-76
2022/06/21 00:28:36;;;;;;;;;;;24.70;45.20;;;;;;5038599;28;19917;-76
2022/06/21 00:31:02;;;;;;;;;;;24.70;45.30;;;;;;5056585;28;19998;-77
2022/06/21 00:33:27;;;;;;;;;;;24.60;45.20;;;;;;5056631;28;20360;-77
2022/06/21 00:35:53;;;;;;;;;;;24.60;45.20;;;;;;5038984;28;20351;-76
2022/06/21 00:38:21;;;;;;;;;;;24.70;45.90;;;;;;5038253;28;20316;-76
2022/06/21 00:40:47;;;;;;;;;;;24.60;45.30;;;;;;5022111;28;19913;-76
2022/06/21 00:43:13;;;;;;;;;;;24.60;45.30;;;;;;5056551;28;20261;-76
2022/06/21 00:45:40;;;;;;;;;;;24.60;45.30;;;;;;5056250;28;19909;-76
2022/06/21 00:48:08;;;;;;;;;;;24.60;45.40;;;;;;5022260;28;19915;-76
2022/06/21 00:50:35;;;;;;;;;;;24.50;45.30;;;;;;5056338;28;19909;-77
2022/06/21 00:53:02;;;;;;;;;;;24.50;45.40;;;;;;5021927;28;20406;-77
2022/06/21 00:55:41;;;;;;;;;;;24.60;45.40;;;;;;5038356;28;19909;-76
2022/06/21 00:58:07;;;;;;;;;;;24.60;45.40;;;;;;5038550;28;19909;-76
2022/06/21 01:00:34;;;;;;;;;;;24.50;45.30;;;;;;5021640;28;19919;-76
2022/06/21 01:03:12;;;;;;;;;;;24.50;45.40;;;;;;5037961;28;19912;-76
2022/06/21 01:05:38;;;;;;;;;;;24.50;45.40;;;;;;5021418;28;19913;-76
2022/06/21 01:08:04;;;;;;;;;;;24.50;45.40;;;;;;5055854;28;19915;-77
2022/06/21 01:10:29;;;;;;;;;;;24.60;45.40;;;;;;5020577;28;20412;-76
2022/06/21 01:12:56;;;;;;;;;;;24.50;45.40;;;;;;5056074;28;19909;-76
2022/06/21 01:15:23;;;;;;;;;;;24.50;45.40;;;;;;5021462;28;19909;-76
2022/06/21 01:17:50;;;;;;;;;;;24.50;45.40;;;;;;5021451;28;19919;-76
2022/06/21 01:20:18;;;;;;;;;;;24.50;45.50;;;;;;5037924;28;19929;-76
2022/06/21 01:22:49;;;;;;;;;;;24.40;45.50;;;;;;5038044;28;19934;-76
2022/06/21 01:25:32;;;;;;;;;;;24.50;45.50;;;;;;5021119;28;20384;-76
2022/06/21 01:27:57;;;;;;;;;;;24.50;45.60;;;;;;5038103;28;19971;-76
2022/06/21 01:30:23;;;;;;;;;;;24.40;45.50;;;;;;5056320;28;19955;-76
2022/06/21 01:32:48;;;;;;;;;;;24.40;45.50;;;;;;5037758;28;19951;-77
2022/06/21 01:35:16;;;;;;;;;;;24.50;45.50;;;;;;5037901;28;19916;-76
2022/06/21 01:37:42;;;;;;;;;;;24.50;45.50;;;;;;5055077;28;20007;-76
2022/06/21 01:40:17;;;;;;;;;;;24.40;45.50;;;;;;5037553;28;20006;-76
2022/06/21 01:42:44;;;;;;;;;;;24.40;45.50;;;;;;5037649;28;19915;-76
2022/06/21 01:45:11;;;;;;;;;;;24.40;45.50;;;;;;5037401;28;20285;-77
2022/06/21 01:48:00;;;;;;;;;;;24.40;45.50;;;;;;5037389;28;19913;-76
2022/06/21 01:50:25;;;;;;;;;;;24.40;45.50;;;;;;5044425;28;19982;-76
2022/06/21 01:52:51;;;;;;;;;;;24.40;45.50;;;;;;5037226;28;19909;-76
2022/06/21 01:55:19;;;;;;;;;;;24.40;45.50;;;;;;5037459;28;19909;-76
2022/06/21 01:57:45;;;;;;;;;;;24.40;45.50;;;;;;5037323;28;19948;-76
2022/06/21 02:00:10;;;;;;;;;;;24.40;45.50;;;;;;5037078;28;19935;-76
2022/06/21 02:02:41;;;;;;;;;;;24.40;45.50;;;;;;5037241;28;19913;-75
2022/06/21 02:05:08;;;;;;;;;;;24.40;45.50;;;;;;5020513;28;20349;-76
2022/06/21 02:07:42;;;;;;;;;;;24.40;45.50;;;;;;5037175;28;19908;-76
2022/06/21 02:10:10;;;;;;;;;;;24.40;45.50;;;;;;5035414;28;19959;-76
2022/06/21 02:12:36;;;;;;;;;;;24.40;45.50;;;;;;5034731;28;20456;-75
2022/06/21 02:15:02;;;;;;;;;;;24.40;45.50;;;;;;5017456;28;19952;-76
2022/06/21 02:17:29;;;;;;;;;;;24.40;45.60;;;;;;5001005;28;19909;-76
2022/06/21 02:20:02;;;;;;;;;;;24.30;45.50;;;;;;5000735;28;19909;-76
2022/06/21 02:22:28;;;;;;;;;;;24.30;45.50;;;;;;5016914;28;19918;-76
2022/06/21 02:24:54;;;;;;;;;;;24.30;45.50;;;;;;5017054;28;19920;-76
2022/06/21 02:27:20;;;;;;;;;;;24.40;45.60;;;;;;5000856;28;19909;-76
2022/06/21 02:29:50;;;;;;;;;;;24.30;45.50;;;;;;5016856;28;19917;-76
2022/06/21 02:32:19;;;;;;;;;;;24.30;45.60;;;;;;5034979;28;19909;-76
2022/06/21 02:34:45;;;;;;;;;;;24.30;45.60;;;;;;5000226;28;19909;-76
2022/06/21 02:37:10;;;;;;;;;;;24.40;45.70;;;;;;5016784;28;19939;-76
2022/06/21 02:39:36;;;;;;;;;;;24.30;45.60;;;;;;5000657;28;19913;-75
2022/06/21 02:42:08;;;;;;;;;;;24.20;45.50;;;;;;5016444;28;20321;-76
2022/06/21 02:44:38;;;;;;;;;;;24.30;45.60;;;;;;5000350;28;19913;-76
2022/06/21 02:47:08;;;;;;;;;;;24.30;45.60;;;;;;5016945;28;20286;-76
2022/06/21 02:49:45;;;;;;;;;;;24.30;45.60;;;;;;5016387;28;20277;-76
2022/06/21 02:52:12;;;;;;;;;;;24.30;45.60;;;;;;5000114;28;19913;-76
2022/06/21 02:54:49;;;;;;;;;;;24.30;45.60;;;;;;5016585;28;20296;-76
2022/06/21 02:57:30;;;;;;;;;;;24.30;45.60;;;;;;5016509;28;20364;-76
2022/06/21 02:59:56;;;;;;;;;;;24.20;45.50;;;;;;5034398;28;20368;-76
2022/06/21 03:02:22;;;;;;;;;;;24.30;45.60;;;;;;5033913;28;19920;-76
2022/06/21 03:04:52;;;;;;;;;;;24.20;45.60;;;;;;5016174;28;20388;-76
2022/06/21 03:07:20;;;;;;;;;;;24.20;45.60;;;;;;5016543;28;19909;-76
2022/06/21 03:09:45;;;;;;;;;;;24.20;45.60;;;;;;5016530;28;19932;-76
2022/06/21 03:12:12;;;;;;;;;;;24.20;45.60;;;;;;5016215;28;19909;-76
2022/06/21 03:14:38;;;;;;;;;;;24.20;45.50;;;;;;4999581;28;19968;-76
2022/06/21 03:17:03;;;;;;;;;;;24.20;45.40;;;;;;5016319;28;19910;-76
2022/06/21 03:19:29;;;;;;;;;;;24.30;45.50;;;;;;5015980;28;19909;-76
2022/06/21 03:21:54;;;;;;;;;;;24.30;45.50;;;;;;5015910;28;19917;-76
2022/06/21 03:24:20;;;;;;;;;;;24.30;45.40;;;;;;5016325;28;19920;-76
2022/06/21 03:26:50;;;;;;;;;;;24.30;45.50;;;;;;4999605;28;19932;-76
2022/06/21 03:29:16;;;;;;;;;;;24.30;45.40;;;;;;5016191;28;19909;-76
2022/06/21 03:31:42;;;;;;;;;;;24.30;45.40;;;;;;5016057;28;19909;-76
2022/06/21 03:34:09;;;;;;;;;;;24.20;46.00;;;;;;5019320;28;19909;-76
2022/06/21 03:36:35;;;;;;;;;;;24.20;45.40;;;;;;5020164;28;19913;-76
2022/06/21 03:39:03;;;;;;;;;;;24.30;45.50;;;;;;5004086;28;19921;-76
2022/06/21 03:41:43;;;;;;;;;;;24.30;45.50;;;;;;5019839;28;19920;-76
2022/06/21 03:44:27;;;;;;;;;;;24.20;45.40;;;;;;5022522;28;19919;-76
2022/06/21 03:46:53;;;;;;;;;;;24.30;45.50;;;;;;5037477;28;20639;-76
2022/06/21 03:49:28;;;;;;;;;;;24.20;45.30;;;;;;5037402;28;19909;-76
2022/06/21 03:51:54;;;;;;;;;;;24.20;45.40;;;;;;5037216;28;19916;-76
2022/06/21 03:54:39;;;;;;;;;;;24.30;45.40;;;;;;5019649;28;19909;-75
2022/06/21 03:57:08;;;;;;;;;;;24.20;45.30;;;;;;5019545;28;20266;-76
2022/06/21 03:59:33;;;;;;;;;;;24.30;45.40;;;;;;5037122;28;19916;-75
2022/06/21 04:02:05;;;;;;;;;;;24.30;45.40;;;;;;5019111;28;19914;-76
2022/06/21 04:04:30;;;;;;;;;;;24.30;45.40;;;;;;5002739;28;19921;-76
2022/06/21 04:07:17;;;;;;;;;;;24.30;45.40;;;;;;5037069;28;20013;-76
2022/06/21 04:09:56;;;;;;;;;;;24.30;45.30;;;;;;5019730;28;20369;-75
2022/06/21 04:12:30;;;;;;;;;;;24.30;45.30;;;;;;5002865;28;19909;-76
2022/06/21 04:15:02;;;;;;;;;;;24.30;45.30;;;;;;5002857;28;19916;-76
2022/06/21 04:17:40;;;;;;;;;;;24.30;45.30;;;;;;5036863;28;19964;-76
2022/06/21 04:20:24;;;;;;;;;;;24.30;45.20;;;;;;5018912;28;19910;-76
2022/06/21 04:22:58;;;;;;;;;;;24.30;45.20;;;;;;5019052;28;19913;-77
2022/06/21 04:25:23;;;;;;;;;;;24.30;45.20;;;;;;5002522;28;20377;-77
2022/06/21 04:27:48;;;;;;;;;;;24.30;45.20;;;;;;5036576;28;19915;-76
2022/06/21 04:30:22;;;;;;;;;;;24.30;45.20;;;;;;5036850;28;19915;-76
2022/06/21 04:32:49;;;;;;;;;;;24.30;45.20;;;;;;5026044;28;20000;-76
2022/06/21 04:35:23;;;;;;;;;;;24.30;45.20;;;;;;5002426;28;20300;-77
2022/06/21 04:37:53;;;;;;;;;;;24.30;45.20;;;;;;5019000;28;20378;-76
2022/06/21 04:40:22;;;;;;;;;;;24.30;45.20;;;;;;5036524;28;19909;-76
2022/06/21 04:42:47;;;;;;;;;;;24.30;45.10;;;;;;5036366;28;20004;-76
2022/06/21 04:45:18;;;;;;;;;;;24.30;45.20;;;;;;5036213;28;19959;-77
2022/06/21 04:47:44;;;;;;;;;;;24.20;45.10;;;;;;5018529;28;20330;-76
2022/06/21 04:50:13;;;;;;;;;;;24.20;45.10;;;;;;5002483;28;20368;-76
2022/06/21 04:52:39;;;;;;;;;;;24.30;45.20;;;;;;5036299;28;19909;-76
2022/06/21 04:55:14;;;;;;;;;;;24.30;45.20;;;;;;5018111;28;21254;-76
2022/06/21 04:57:39;;;;;;;;;;;24.30;45.20;;;;;;5018438;28;20265;-76
2022/06/21 05:00:18;;;;;;;;;;;24.30;45.10;;;;;;5018070;28;20008;-76
2022/06/21 05:02:44;;;;;;;;;;;24.30;45.10;;;;;;5018244;28;19959;-76
2022/06/21 05:05:11;;;;;;;;;;;24.30;45.10;;;;;;5001461;28;20028;-76
2022/06/21 05:07:38;;;;;;;;;;;24.30;45.20;;;;;;5001865;28;19940;-75
2022/06/21 05:10:04;;;;;;;;;;;24.30;45.10;;;;;;5017984;28;19920;-75
2022/06/21 05:12:40;;;;;;;;;;;24.30;45.20;;;;;;5035749;28;19909;-75
2022/06/21 05:15:09;;;;;;;;;;;24.30;45.20;;;;;;5018098;28;19909;-75
2022/06/21 05:17:35;;;;;;;;;;;24.30;45.10;;;;;;5017980;28;19909;-76
2022/06/21 05:20:02;;;;;;;;;;;24.30;45.10;;;;;;5018036;28;19920;-76
2022/06/21 05:22:32;;;;;;;;;;;24.30;45.10;;;;;;5001216;28;20395;-76
2022/06/21 05:24:58;;;;;;;;;;;24.30;45.10;;;;;;5017925;28;19916;-76
2022/06/21 05:27:44;;;;;;;;;;;24.30;45.20;;;;;;5017318;28;19909;-75
2022/06/21 05:30:24;;;;;;;;;;;24.30;45.20;;;;;;5017573;28;19976;-76
2022/06/21 05:32:51;;;;;;;;;;;24.30;45.20;;;;;;5017556;28;19909;-76
2022/06/21 05:35:17;;;;;;;;;;;24.30;45.20;;;;;;5001089;28;19956;-76
2022/06/21 05:37:49;;;;;;;;;;;24.30;45.20;;;;;;5017963;28;19909;-77
2022/06/21 05:40:21;;;;;;;;;;;24.20;45.00;;;;;;5035198;28;20320;-76
2022/06/21 05:42:46;;;;;;;;;;;24.30;45.20;;;;;;5017400;28;19931;-76
2022/06/21 05:45:12;;;;;;;;;;;24.30;45.20;;;;;;5035177;28;19913;-76
2022/06/21 05:47:42;;;;;;;;;;;24.20;45.10;;;;;;5017327;28;19953;-77
2022/06/21 05:50:08;;;;;;;;;;;24.20;45.10;;;;;;5017433;28;19909;-77
2022/06/21 05:52:34;;;;;;;;;;;24.20;45.10;;;;;;5017310;28;20400;-75
2022/06/21 05:55:01;;;;;;;;;;;24.20;45.10;;;;;;5017103;28;20391;-76
2022/06/21 05:57:31;;;;;;;;;;;24.20;45.10;;;;;;5000520;28;20360;-76
2022/06/21 05:59:56;;;;;;;;;;;24.20;45.20;;;;;;5016957;28;20015;-76
2022/06/21 06:02:27;;;;;;;;;;;24.20;45.10;;;;;;5017206;28;19996;-77
2022/06/21 06:04:57;;;;;;;;;;;24.20;45.10;;;;;;5017231;28;19925;-76
2022/06/21 06:07:25;;;;;;;;;;;24.30;45.20;;;;;;5000859;28;19915;-77
2022/06/21 06:09:54;;;;;;;;;;;24.20;45.10;;;;;;5017161;28;19967;-76
2022/06/21 06:12:24;;;;;;;;;;;24.20;45.10;;;;;;5017606;28;19909;-76
2022/06/21 06:14:51;;;;;;;;;;;24.30;45.20;;;;;;5000345;28;20380;-76
2022/06/21 06:17:20;;;;;;;;;;;24.20;45.10;;;;;;5000463;28;19952;-76
2022/06/21 06:19:47;;;;;;;;;;;24.20;45.20;;;;;;5016787;28;19909;-76
2022/06/21 06:22:35;;;;;;;;;;;24.30;45.30;;;;;;5016609;28;19913;-76
2022/06/21 06:25:02;;;;;;;;;;;24.20;45.20;;;;;;5000335;28;19916;-76
2022/06/21 06:27:45;;;;;;;;;;;24.20;45.20;;;;;;5000249;28;20000;-76
2022/06/21 06:30:12;;;;;;;;;;;24.30;45.30;;;;;;5000697;28;19917;-76
2022/06/21 06:32:42;;;;;;;;;;;24.20;45.30;;;;;;5016716;28;19909;-76
2022/06/21 06:35:17;;;;;;;;;;;24.20;45.20;;;;;;5016334;28;20059;-76
2022/06/21 06:37:43;;;;;;;;;;;24.20;45.30;;;;;;5000286;28;19909;-76
2022/06/21 06:40:16;;;;;;;;;;;24.20;45.20;;;;;;5016255;28;20257;-76
2022/06/21 06:42:41;;;;;;;;;;;24.20;45.30;;;;;;5033930;28;19913;-76
2022/06/21 06:45:17;;;;;;;;;;;24.20;45.30;;;;;;5016197;28;20364;-76
2022/06/21 06:47:47;;;;;;;;;;;24.20;45.30;;;;;;5000202;28;19916;-76
2022/06/21 06:50:23;;;;;;;;;;;24.20;45.30;;;;;;5016326;28;20272;-76
2022/06/21 06:53:01;;;;;;;;;;;24.20;45.40;;;;;;5015995;28;19909;-75
2022/06/21 06:55:32;;;;;;;;;;;24.20;45.40;;;;;;4999655;28;20265;-75
2022/06/21 06:58:19;;;;;;;;;;;24.20;45.40;;;;;;5016222;28;19959;-76
2022/06/21 07:00:46;;;;;;;;;;;24.20;45.40;;;;;;4999640;28;19913;-76
2022/06/21 07:03:19;;;;;;;;;;;24.20;45.30;;;;;;5016043;28;20280;-76
2022/06/21 07:06:02;;;;;;;;;;;24.30;45.40;;;;;;5016081;28;20011;-76
2022/06/21 07:08:33;;;;;;;;;;;24.20;45.40;;;;;;5033198;28;19999;-76
2022/06/21 07:10:59;;;;;;;;;;;24.20;45.40;;;;;;5033989;28;20348;-76
2022/06/21 07:13:24;;;;;;;;;;;24.20;45.40;;;;;;5016108;28;19993;-76
2022/06/21 07:15:59;;;;;;;;;;;24.20;45.40;;;;;;5016042;28;20261;-76
2022/06/21 07:18:27;;;;;;;;;;;24.30;45.50;;;;;;4999464;28;19909;-76
2022/06/21 07:20:52;;;;;;;;;;;24.20;45.40;;;;;;5016127;28;19913;-77
2022/06/21 07:23:19;;;;;;;;;;;24.20;45.40;;;;;;5016084;28;19981;-76
2022/06/21 07:26:02;;;;;;;;;;;24.20;45.50;;;;;;5016253;28;20312;-76
2022/06/21 07:28:30;;;;;;;;;;;24.20;45.40;;;;;;5015929;28;19909;-76
2022/06/21 07:30:56;;;;;;;;;;;24.20;45.40;;;;;;4999738;28;19913;-76
2022/06/21 07:33:21;;;;;;;;;;;24.20;45.40;;;;;;4999620;28;19917;-76
2022/06/21 07:35:51;;;;;;;;;;;24.20;45.40;;;;;;5015730;28;19940;-75
2022/06/21 07:38:18;;;;;;;;;;;24.20;45.40;;;;;;5016292;28;19968;-76
2022/06/21 07:40:50;;;;;;;;;;;24.20;45.40;;;;;;4999567;28;19913;-76
2022/06/21 07:43:21;;;;;;;;;;;24.20;45.40;;;;;;4999479;28;19916;-76
2022/06/21 07:45:49;;;;;;;;;;;24.30;45.50;;;;;;5016404;28;19909;-77
2022/06/21 07:48:19;;;;;;;;;;;24.20;45.40;;;;;;5034133;28;19910;-76
2022/06/21 07:50:51;;;;;;;;;;;24.20;45.40;;;;;;5016320;28;19915;-76
2022/06/21 07:53:22;;;;;;;;;;;24.20;45.50;;;;;;4999255;28;19916;-76
2022/06/21 07:55:56;;;;;;;;;;;24.20;45.40;;;;;;4999211;28;19915;-76
2022/06/21 07:58:24;;;;;;;;;;;24.20;45.40;;;;;;4999184;28;19913;-76
2022/06/21 08:09:25;;;;;;;;;;;24.30;45.50;;;;;;5013277;28;20284;-76
2022/06/21 08:11:51;;;;;;;;;;;24.30;45.50;;;;;;5006239;28;19910;-77
2022/06/21 08:14:17;;;;;;;;;;;24.30;45.40;;;;;;5012291;28;19910;-76
2022/06/21 08:16:46;;;;;;;;;;;24.30;45.40;;;;;;5012613;28;19909;-76
2022/06/21 08:19:13;;;;;;;;;;;24.30;45.40;;;;;;5014572;28;19955;-76
2022/06/21 08:21:41;;;;;;;;;;;24.30;45.40;;;;;;5016617;28;20349;-76
2022/06/21 08:24:10;;;;;;;;;;;24.30;45.40;;;;;;4999337;28;19974;-76
2022/06/21 08:26:37;;;;;;;;;;;24.30;45.40;;;;;;5015809;28;19917;-76
2022/06/21 08:29:14;;;;;;;;;;;24.30;45.40;;;;;;4999104;28;19909;-76
2022/06/21 08:31:41;;;;;;;;;;;24.30;45.40;;;;;;5015616;28;19965;-76
2022/06/21 08:34:08;;;;;;;;;;;24.40;45.40;;;;;;4999270;28;20387;-77
2022/06/21 08:36:38;;;;;;;;;;;24.30;45.30;;;;;;5015612;28;20409;-76
2022/06/21 08:39:07;;;;;;;;;;;24.40;45.30;;;;;;5016916;28;20346;-76
2022/06/21 08:44:39;;;;;;;;;;;24.40;45.40;;;;;;5009037;28;20324;-77
2022/06/21 08:47:22;;;;;;;;;;;24.40;45.40;;;;;;5016595;28;20280;-76
2022/06/21 08:49:57;;;;;;;;;;;24.40;45.40;;;;;;5016647;28;19916;-77
2022/06/21 08:52:42;;;;;;;;;;;24.30;45.50;;;;;;5015097;28;20008;-78
2022/06/21 08:55:23;;;;;;;;;;;24.30;45.60;;;;;;5015158;28;19909;-77
2022/06/21 08:57:52;;;;;;;;;;;24.30;45.60;;;;;;5014930;28;19909;-76
2022/06/21 09:00:36;;;;;;;;;;;24.30;45.60;;;;;;4998887;28;19909;-76
2022/06/21 09:03:05;;;;;;;;;;;24.30;45.70;;;;;;5016276;28;20380;-76
2022/06/21 09:05:37;;;;;;;;;;;24.30;45.60;;;;;;5018038;28;19936;-76
2022/06/21 09:08:24;;;;;;;;;;;24.40;45.70;;;;;;5019110;28;19909;-76
2022/06/21 09:10:50;;;;;;;;;;;24.30;45.70;;;;;;5036347;28;20387;-76
2022/06/21 09:13:34;;;;;;;;;;;24.30;45.70;;;;;;5018523;28;19909;-77
2022/06/21 09:16:07;;;;;;;;;;;24.30;45.70;;;;;;5018470;28;19910;-76
2022/06/21 09:18:44;;;;;;;;;;;24.30;45.70;;;;;;5018395;28;20388;-76
2022/06/21 09:21:16;;;;;;;;;;;24.30;45.80;;;;;;5035774;28;19998;-76
2022/06/21 09:24:02;;;;;;;;;;;24.30;45.70;;;;;;5035595;28;19913;-76
2022/06/21 09:26:33;;;;;;;;;;;24.30;45.80;;;;;;5017975;28;19913;-75
2022/06/21 09:28:59;;;;;;;;;;;24.30;45.90;;;;;;5035979;28;19913;-76
2022/06/21 09:31:38;;;;;;;;;;;24.30;45.90;;;;;;5034778;28;19917;-75
2022/06/21 09:34:03;;;;;;;;;;;24.30;46.00;;;;;;5001355;28;19968;-76
2022/06/21 09:36:29;;;;;;;;;;;24.30;46.00;;;;;;5017679;28;20360;-76
2022/06/21 09:39:13;;;;;;;;;;;24.30;46.10;;;;;;5035883;28;20288;-76
2022/06/21 09:41:41;;;;;;;;;;;24.20;46.00;;;;;;5035183;28;19912;-76
2022/06/21 09:44:07;;;;;;;;;;;24.20;46.20;;;;;;5035031;28;19992;-76
2022/06/21 09:46:48;;;;;;;;;;;24.20;46.20;;;;;;5035532;28;19936;-76
2022/06/21 09:49:13;;;;;;;;;;;24.20;46.20;;;;;;5035143;28;19909;-77
2022/06/21 09:51:44;;;;;;;;;;;24.20;46.20;;;;;;5017350;28;20380;-77
2022/06/21 09:54:16;;;;;;;;;;;24.30;46.30;;;;;;5017284;28;19909;-76
2022/06/21 09:57:00;;;;;;;;;;;24.30;46.30;;;;;;5001168;28;19913;-76
2022/06/21 09:59:41;;;;;;;;;;;24.30;46.20;;;;;;5017077;28;19916;-76
2022/06/21 10:02:07;;;;;;;;;;;24.30;46.30;;;;;;5017163;28;19920;-77
2022/06/21 10:04:36;;;;;;;;;;;24.30;46.30;;;;;;5016892;28;20288;-76
2022/06/21 10:07:20;;;;;;;;;;;24.30;46.30;;;;;;5000730;28;19917;-76
2022/06/21 10:09:49;;;;;;;;;;;24.30;46.00;;;;;;5017262;28;20348;-76
2022/06/21 10:12:29;;;;;;;;;;;24.30;46.10;;;;;;5017244;28;20424;-75
2022/06/21 10:14:56;;;;;;;;;;;24.30;46.10;;;;;;5017167;28;19932;-76
2022/06/21 10:17:25;;;;;;;;;;;24.30;46.20;;;;;;5016773;28;19913;-76
2022/06/21 10:19:51;;;;;;;;;;;24.30;46.20;;;;;;5000485;28;19916;-76
2022/06/21 10:22:19;;;;;;;;;;;24.30;46.10;;;;;;5034423;28;19913;-76
2022/06/21 10:24:56;;;;;;;;;;;24.30;46.00;;;;;;5016953;28;19956;-75
2022/06/21 10:27:36;;;;;;;;;;;24.40;46.10;;;;;;5016981;28;20287;-76
2022/06/21 10:30:02;;;;;;;;;;;24.40;46.10;;;;;;5023907;28;20261;-76
2022/06/21 10:32:31;;;;;;;;;;;24.40;46.00;;;;;;5034350;28;19936;-76
2022/06/21 10:35:10;;;;;;;;;;;24.40;46.10;;;;;;5016576;28;20257;-76
2022/06/21 10:37:44;;;;;;;;;;;24.40;46.10;;;;;;5000462;28;19913;-76
2022/06/21 10:40:13;;;;;;;;;;;24.40;46.10;;;;;;5034525;28;19914;-75
2022/06/21 10:42:53;;;;;;;;;;;24.50;46.20;;;;;;5016235;28;20377;-75
2022/06/21 10:45:22;;;;;;;;;;;24.40;46.10;;;;;;5000305;28;19909;-76
2022/06/21 10:47:47;;;;;;;;;;;24.50;46.00;;;;;;5016328;28;19916;-76
2022/06/21 10:50:19;;;;;;;;;;;24.50;46.10;;;;;;5034273;28;19909;-76
2022/06/21 10:52:50;;;;;;;;;;;24.50;46.10;;;;;;4999770;28;19948;-76
2022/06/21 10:55:27;;;;;;;;;;;24.50;46.00;;;;;;5033825;28;19909;-75
2022/06/21 10:57:54;;;;;;;;;;;24.50;46.20;;;;;;5022879;28;20487;-75
2022/06/21 11:03:23;;;;;;;;;;;24.50;46.00;;;;;;5037222;28;19971;-76
2022/06/21 11:05:54;;;;;;;;;;;24.50;46.00;;;;;;5016181;28;20373;-76
2022/06/21 11:08:27;;;;;;;;;;;24.60;46.00;;;;;;5034025;28;19964;-76
2022/06/21 11:11:19;;;;;;;;;;;24.60;45.90;;;;;;4999311;28;20000;-76
2022/06/21 11:14:03;;;;;;;;;;;24.60;45.90;;;;;;5030771;28;19936;-76
2022/06/21 11:16:35;;;;;;;;;;;24.60;46.10;;;;;;5033784;28;19916;-76
2022/06/21 11:19:00;;;;;;;;;;;24.70;46.00;;;;;;5033531;28;19952;-75
2022/06/21 11:21:29;;;;;;;;;;;24.70;46.10;;;;;;5033521;28;20376;-77
2022/06/21 11:23:54;;;;;;;;;;;24.70;46.10;;;;;;5016059;28;20368;-76
2022/06/21 11:26:22;;;;;;;;;;;24.60;46.10;;;;;;5034432;28;20003;-76
2022/06/21 11:28:50;;;;;;;;;;;24.60;46.10;;;;;;5033933;28;19913;-76
2022/06/21 11:31:19;;;;;;;;;;;24.70;46.20;;;;;;5016455;28;19916;-76
2022/06/21 11:33:53;;;;;;;;;;;24.70;46.20;;;;;;5033877;28;20003;-76
2022/06/21 11:36:25;;;;;;;;;;;24.70;46.20;;;;;;5033456;28;20426;-77
2022/06/21 11:39:11;;;;;;;;;;;24.70;46.10;;;;;;5016087;28;19959;-76
2022/06/21 11:44:42;;;;;;;;;;;24.70;46.20;;;;;;5040252;28;19921;-76
2022/06/21 11:47:10;;;;;;;;;;;24.70;46.10;;;;;;5033209;28;19934;-76
2022/06/21 11:49:36;;;;;;;;;;;24.80;46.00;;;;;;5015714;28;19909;-76
2022/06/21 11:52:17;;;;;;;;;;;24.80;46.10;;;;;;5015595;28;19913;-75
2022/06/21 11:54:43;;;;;;;;;;;24.80;46.00;;;;;;5017714;28;19913;-76
2022/06/21 11:57:08;;;;;;;;;;;24.80;45.90;;;;;;5019366;28;19916;-76
2022/06/21 11:59:39;;;;;;;;;;;24.90;45.90;;;;;;5036944;28;19981;-76
2022/06/21 12:02:16;;;;;;;;;;;24.90;45.80;;;;;;5019229;28;19913;-76
2022/06/21 12:04:44;;;;;;;;;;;24.90;45.80;;;;;;4999293;28;19932;-76
2022/06/21 12:07:15;;;;;;;;;;;25.00;45.90;;;;;;5016242;28;19976;-75
2022/06/21 12:10:00;;;;;;;;;;;24.90;45.90;;;;;;4999892;28;19916;-75
2022/06/21 12:12:39;;;;;;;;;;;24.90;45.90;;;;;;5022665;28;19910;-76
2022/06/21 12:15:25;;;;;;;;;;;25.00;45.90;;;;;;5016023;28;19909;-76
2022/06/21 12:17:57;;;;;;;;;;;25.00;45.70;;;;;;5015835;28;19910;-76
2022/06/21 12:20:27;;;;;;;;;;;25.00;45.50;;;;;;5015825;28;19913;-76
2022/06/21 12:22:59;;;;;;;;;;;25.10;45.40;;;;;;5015842;28;20253;-76
2022/06/21 12:25:25;;;;;;;;;;;25.10;45.60;;;;;;4999337;28;19953;-76
2022/06/21 12:27:52;;;;;;;;;;;25.10;45.60;;;;;;5017021;28;20314;-75
2022/06/21 12:30:17;;;;;;;;;;;25.10;45.20;;;;;;5015719;28;19948;-76
2022/06/21 12:32:43;;;;;;;;;;;25.10;45.60;;;;;;5016716;28;20020;-76
2022/06/21 12:35:15;;;;;;;;;;;25.20;45.40;;;;;;5015637;28;20249;-76
2022/06/21 12:37:42;;;;;;;;;;;25.20;45.30;;;;;;5015744;28;19917;-76
2022/06/21 12:40:11;;;;;;;;;;;25.20;45.20;;;;;;5015548;28;19963;-76
2022/06/21 12:42:40;;;;;;;;;;;25.30;45.50;;;;;;5014879;28;19917;-76
2022/06/21 12:45:21;;;;;;;;;;;25.30;45.10;;;;;;5016689;28;20369;-77
2022/06/21 12:47:58;;;;;;;;;;;25.30;45.00;;;;;;5016684;28;20403;-76
2022/06/21 12:50:33;;;;;;;;;;;25.40;45.30;;;;;;5015626;28;19916;-76
2022/06/21 12:53:12;;;;;;;;;;;25.40;44.80;;;;;;5016330;28;20068;-76
2022/06/21 12:55:45;;;;;;;;;;;25.40;45.00;;;;;;4998812;28;19913;-76
2022/06/21 12:58:20;;;;;;;;;;;25.50;45.20;;;;;;5014973;28;20430;-76
2022/06/21 13:00:49;;;;;;;;;;;25.50;45.00;;;;;;5015064;28;19976;-75
2022/06/21 13:03:18;;;;;;;;;;;25.50;44.50;;;;;;5017681;28;20071;-76
2022/06/21 13:05:53;;;;;;;;;;;25.60;44.50;;;;;;5016771;28;20300;-76
2022/06/21 13:08:27;;;;;;;;;;;25.60;44.50;;;;;;5024240;28;19924;-75
2022/06/21 13:11:02;;;;;;;;;;;25.60;44.40;;;;;;5037741;28;19920;-75
2022/06/21 13:13:47;;;;;;;;;;;25.70;44.70;;;;;;5037914;28;19916;-75
2022/06/21 13:16:26;;;;;;;;;;;25.70;44.80;;;;;;5037837;28;20364;-76
2022/06/21 13:19:00;;;;;;;;;;;25.70;44.50;;;;;;5037521;28;20301;-76
2022/06/21 13:21:41;;;;;;;;;;;25.70;44.70;;;;;;5055568;28;20003;-75
2022/06/21 13:24:18;;;;;;;;;;;25.70;44.30;;;;;;5055326;28;19909;-75
2022/06/21 13:26:47;;;;;;;;;;;25.80;44.20;;;;;;5055571;28;20319;-76
2022/06/21 13:29:15;;;;;;;;;;;25.80;44.70;;;;;;5037496;28;19913;-76
2022/06/21 13:31:42;;;;;;;;;;;25.80;44.60;;;;;;5037898;28;19909;-76
2022/06/21 13:34:34;;;;;;;;;;;25.80;44.90;;;;;;5037465;28;19909;-76
2022/06/21 13:37:00;;;;;;;;;;;25.80;44.90;;;;;;5052105;28;20292;-75
2022/06/21 13:39:45;;;;;;;;;;;25.80;44.50;;;;;;5036655;28;20318;-75
2022/06/21 13:45:14;;;;;;;;;;;25.80;44.70;;;;;;5061849;28;20416;-76
2022/06/21 13:47:58;;;;;;;;;;;25.80;44.70;;;;;;5020756;28;19935;-75
2022/06/21 13:50:26;;;;;;;;;;;25.90;44.70;;;;;;5037163;28;20450;-75
2022/06/21 13:52:51;;;;;;;;;;;25.90;44.70;;;;;;5037194;28;19912;-75
2022/06/21 13:55:19;;;;;;;;;;;25.90;44.30;;;;;;5054988;28;20319;-76
2022/06/21 13:57:44;;;;;;;;;;;25.90;44.20;;;;;;5020342;28;19909;-76
2022/06/21 14:00:10;;;;;;;;;;;26.00;44.10;;;;;;5037101;28;19935;-75
2022/06/21 14:02:55;;;;;;;;;;;26.00;44.30;;;;;;5055001;28;19919;-76
2022/06/21 14:05:31;;;;;;;;;;;26.00;44.20;;;;;;5020956;28;19921;-76
2022/06/21 14:08:06;;;;;;;;;;;26.10;44.60;;;;;;5036554;28;20257;-76
2022/06/21 14:10:42;;;;;;;;;;;26.10;44.50;;;;;;5036956;28;20213;-76
2022/06/21 14:13:20;;;;;;;;;;;26.10;44.60;;;;;;5037128;28;20435;-76
2022/06/21 14:15:48;;;;;;;;;;;26.00;44.60;;;;;;5036702;28;19915;-76
2022/06/21 14:18:23;;;;;;;;;;;26.00;44.70;;;;;;5036300;28;19999;-76
2022/06/21 14:21:09;;;;;;;;;;;26.10;44.70;;;;;;5036591;28;19917;-75
2022/06/21 14:23:36;;;;;;;;;;;26.10;44.60;;;;;;5020086;28;19909;-76
2022/06/21 14:26:27;;;;;;;;;;;26.00;44.20;;;;;;5036632;28;19909;-76
2022/06/21 14:28:55;;;;;;;;;;;26.10;44.20;;;;;;5032518;28;19909;-76
2022/06/21 14:31:27;;;;;;;;;;;26.20;44.60;;;;;;5036654;28;20433;-76
2022/06/21 14:33:57;;;;;;;;;;;26.10;44.60;;;;;;5036389;28;19955;-76
2022/06/21 14:36:29;;;;;;;;;;;26.20;44.60;;;;;;5054358;28;20019;-76
2022/06/21 14:38:54;;;;;;;;;;;26.20;44.70;;;;;;5035926;28;19923;-76
2022/06/21 14:41:36;;;;;;;;;;;26.20;44.50;;;;;;5054196;28;20011;-76
2022/06/21 14:44:25;;;;;;;;;;;26.20;44.60;;;;;;5036254;28;19923;-76
2022/06/21 14:47:23;;;;;;;;;;;26.20;44.50;;;;;;5043111;28;20342;-76
2022/06/21 14:49:50;;;;;;;;;;;26.20;44.70;;;;;;5010059;28;19909;-76
2022/06/21 14:52:35;;;;;;;;;;;26.20;44.80;;;;;;5054069;28;19909;-76
2022/06/21 14:55:15;;;;;;;;;;;26.10;45.00;;;;;;5054008;28;19909;-76
2022/06/21 14:57:44;;;;;;;;;;;26.10;45.10;;;;;;5042809;28;19959;-76
2022/06/21 15:00:26;;;;;;;;;;;26.20;45.00;;;;;;5053777;28;19916;-75